Latest Weather Observations for Proserpine

IDQ60801

Issued at 10:32 am EST Monday 24 July 2017 (issued every 30 minutes, with the page automatically refreshed every 10 minutes)

About weather observations | Map of weather stations | Latest weather observations for QLD | Other Formats
Station Details ID: 033247 Name: PROSERPINE AIRPORT Lat: -20.49 Lon: 148.56 Height: 19.7 m
Data from the previous 72 hours. | See also: Recent months at Proserpine
Date/Time
EST
Temp
°C
App
Temp
°C
Dew
Point
°C
Rel
Hum
%
Delta-T
°C
Wind Press
QNH
hPa
Press
MSL
hPa
Rain since
9am
mm
Dir  Spd
km/h
Gust
km/h
Spd
kts
Gust
kts
24/10:30am 24.9 22.5 15.5 56 5.7 ESE 22 32 12 17 1021.3 1021.2 0.0
24/10:00am 24.3 22.5 16.0 60 5.0 ESE 20 28 11 15 1021.4 1021.3 0.0
24/09:30am 23.1 22.9 17.6 71 3.4 SE 15 26 8 14 1021.5 1021.4 0.0
24/09:00am 20.3 21.7 17.3 83 1.8 S 6 9 3 5 1021.5 1021.4 0.0
24/08:30am 18.2 18.8 16.9 92 0.8 SSW 9 13 5 7 1021.3 1021.2 0.0
24/08:00am 15.9 16.9 15.3 96 0.3 SSW 4 9 2 5 1021.1 1021.0 0.0
24/07:41am 14.6 14.8 14.1 97 0.3 SW 6 9 3 5 1020.8 1020.7 0.0
24/07:30am 13.4 14.3 12.9 97 0.3 CALM 0 0 0 0 1020.7 1020.6 0.0
24/07:17am 12.6 13.2 11.8 95 0.4 CALM 0 0 0 0 1020.6 1020.5 0.0
24/07:00am 12.1 11.8 11.3 95 0.4 WSW 4 7 2 4 1020.4 1020.3 0.0
24/06:51am 12.7 13.4 12.2 97 0.3 CALM 0 0 0 0 1020.2 1020.1 0.0
24/06:34am 12.9 13.3 12.6 98 0.2 SSW 2 9 1 5 1020.1 1020.0 0.0
24/06:30am 12.8 12.4 12.5 98 0.2 SSW 6 11 3 6 1020.0 1019.9 0.0
24/06:00am 12.2 11.0 11.7 97 0.3 SW 9 11 5 6 1019.6 1019.5 0.0
24/05:30am 12.1 11.3 11.8 98 0.2 SW 7 9 4 5 1019.2 1019.1 0.0
24/05:00am 11.8 11.1 11.5 98 0.2 SSW 6 6 3 3 1019.0 1018.9 0.0
24/04:30am 11.9 11.6 11.6 98 0.2 SSW 4 7 2 4 1019.0 1018.9 0.0
24/04:00am 11.2 11.4 10.7 97 0.3 CALM 0 0 0 0 1019.0 1018.9 0.0
24/03:50am 10.5 10.4 9.6 94 0.5 CALM 0 0 0 0 1019.0 1018.9 0.0
24/03:33am 11.6 11.9 10.8 95 0.4 CALM 0 0 0 0 1018.9 1018.8 0.0
24/03:30am 11.9 12.3 11.1 95 0.4 CALM 0 0 0 0 1019.0 1018.9 0.0
24/03:00am 12.0 12.4 11.4 96 0.3 CALM 0 0 0 0 1018.9 1018.8 0.0
24/02:54am 12.0 12.4 11.4 96 0.3 CALM 0 4 0 2 1019.0 1018.9 0.0
24/02:36am 12.7 13.0 12.2 97 0.3 SW 2 6 1 3 1019.0 1018.9 0.0
24/02:30am 12.8 13.5 12.3 97 0.3 CALM 0 6 0 3 1019.1 1019.0 0.0
24/02:00am 13.1 12.6 12.6 97 0.3 SSW 7 9 4 5 1019.3 1019.2 0.0
24/01:30am 13.0 12.4 12.4 96 0.3 SW 7 11 4 6 1019.3 1019.2 0.0
24/01:00am 12.8 12.3 12.0 95 0.4 SW 6 6 3 3 1019.6 1019.5 0.0
24/12:30am 13.4 12.6 12.8 96 0.3 SSW 9 11 5 6 1019.7 1019.6 0.0
24/12:00am 13.4 12.5 12.6 95 0.4 SSW 9 11 5 6 1019.8 1019.7 0.0
 
Date/Time
EST
Temp
°C
App
Temp
°C
Dew
Point
°C
Rel
Hum
%
Delta-T
°C
Wind Press
QNH
hPa
Press
MSL
hPa
Rain since
9am
mm
Dir  Spd
km/h
Gust
km/h
Spd
kts
Gust
kts
23/11:32pm 14.0 15.0 13.2 95 0.4 CALM 0 0 0 0 1019.9 1019.8 0.0
23/11:30pm 13.8 14.7 13.0 95 0.4 CALM 0 0 0 0 1019.9 1019.8 0.0
23/11:16pm 13.9 14.0 12.8 93 0.6 SSW 4 7 2 4 1020.0 1019.9 0.0
23/11:00pm 14.8 14.7 14.0 95 0.4 SSW 7 9 4 5 1020.0 1019.9 0.0
23/10:30pm 15.2 15.3 14.4 95 0.5 SW 7 7 4 4 1020.0 1019.9 0.0
23/10:00pm 15.7 16.2 14.9 95 0.5 SSW 6 7 3 4 1020.0 1019.9 0.0
23/09:30pm 15.5 15.7 14.2 92 0.7 S 6 7 3 4 1019.8 1019.7 0.0
23/09:00pm 16.2 16.7 14.9 92 0.7 S 6 9 3 5 1019.6 1019.5 0.0
23/08:30pm 16.4 16.6 14.6 89 1.0 S 7 9 4 5 1019.5 1019.4 0.0
23/08:00pm 17.4 17.5 15.6 89 1.1 S 9 11 5 6 1019.4 1019.3 0.0
23/07:30pm 17.7 18.2 15.5 87 1.3 SSE 7 9 4 5 1019.0 1018.9 0.0
23/07:00pm 18.0 18.5 15.6 86 1.4 SSE 7 11 4 6 1018.6 1018.5 0.0
23/06:30pm 18.8 18.3 15.9 83 1.7 ESE 13 15 7 8 1018.1 1018.0 0.0
23/06:00pm 19.4 18.8 15.7 79 2.2 ESE 13 15 7 8 1017.6 1017.6 0.0
23/05:30pm 21.6 21.0 14.7 65 4.1 ESE 11 17 6 9 1017.4 1017.4 0.0
23/05:00pm 23.4 22.0 13.3 53 5.8 E 13 15 7 8 1017.0 1017.0 0.0
23/04:30pm 24.1 22.0 13.6 52 6.1 E 17 22 9 12 1017.0 1017.0 0.0
23/04:00pm 24.2 21.9 13.1 50 6.4 E 17 22 9 12 1017.0 1017.0 0.0
23/03:30pm 24.6 22.9 13.5 50 6.5 ESE 15 22 8 12 1016.9 1016.9 0.0
23/03:00pm 25.1 23.2 14.3 51 6.4 E 17 24 9 13 1017.1 1017.1 0.0
23/02:30pm 23.9 21.7 13.2 51 6.2 ESE 17 22 9 12 1017.3 1017.3 0.0
23/02:00pm 24.9 23.0 13.1 48 6.8 ENE 15 22 8 12 1017.5 1017.5 0.0
23/01:30pm 25.1 23.4 13.6 49 6.7 ESE 15 22 8 12 1017.9 1017.8 0.0
23/01:00pm 24.4 22.6 13.3 50 6.4 E 15 22 8 12 1018.3 1018.2 0.0
23/12:30pm 24.8 22.8 14.0 51 6.4 E 17 26 9 14 1018.9 1018.8 0.0
23/12:00pm 24.7 22.5 13.3 49 6.6 ENE 17 28 9 15 1019.5 1019.4 0.0
23/11:30am 24.6 23.1 13.2 49 6.6 E 13 24 7 13 1019.9 1019.8 0.0
23/11:00am 23.9 22.4 13.2 51 6.2 ESE 13 22 7 12 1020.3 1020.2 0.0
23/10:30am 23.6 22.5 13.2 52 6.0 SE 11 20 6 11 1020.5 1020.4 0.0
23/10:00am 22.3 21.5 12.8 55 5.4 SE 9 15 5 8 1020.9 1020.8 0.0
23/09:30am 21.0 20.7 13.2 61 4.5 SE 7 13 4 7 1021.2 1021.1 0.0
23/09:00am 19.3 19.6 13.5 69 3.3 ESE 4 9 2 5 1021.0 1020.9 0.0
23/08:30am 17.0 18.0 13.1 78 2.2 CALM 0 6 0 3 1020.8 1020.7 0.0
23/08:00am 14.3 14.8 12.9 91 0.8 SSW 2 6 1 3 1020.7 1020.6 0.0
23/07:30am 11.2 11.5 10.9 98 0.2 CALM 0 0 0 0 1020.5 1020.4 0.0
23/07:00am 8.5 8.0 7.7 95 0.4 CALM 0 6 0 3 1020.1 1020.0 0.0
23/06:30am 8.7 7.9 8.3 97 0.2 W 2 6 1 3 1019.8 1019.7 0.0
23/06:00am 7.9 6.0 6.8 93 0.5 SW 6 7 3 4 1019.6 1019.5 0.0
23/05:30am 8.5 7.6 7.7 95 0.4 SW 2 7 1 4 1019.3 1019.2 0.0
23/05:00am 8.7 7.8 7.8 94 0.4 SW 2 7 1 4 1019.1 1019.0 0.0
23/04:30am 9.9 9.8 9.4 97 0.2 CALM 0 6 0 3 1019.1 1019.0 0.0
23/04:00am 9.1 8.7 8.2 94 0.4 CALM 0 0 0 0 1019.2 1019.1 0.0
23/03:30am 9.6 9.4 9.1 97 0.2 CALM 0 0 0 0 1019.3 1019.2 0.0
23/03:00am 8.8 7.0 7.9 94 0.4 NW 7 9 4 5 1019.5 1019.4 0.0
23/02:30am 10.3 9.4 9.4 94 0.4 NW 4 6 2 3 1019.6 1019.5 0.0
23/02:00am 11.1 10.0 9.9 92 0.6 SW 6 7 3 4 1019.8 1019.7 0.0
23/01:30am 11.8 12.0 10.7 93 0.6 CALM 0 0 0 0 1019.9 1019.8 0.0
23/01:00am 11.7 11.5 10.3 91 0.7 SW 2 9 1 5 1020.3 1020.2 0.0
23/12:30am 12.5 10.7 10.7 89 0.9 SSW 11 13 6 7 1020.3 1020.2 0.0
23/12:00am 12.8 10.8 11.4 91 0.7 SSW 13 15 7 8 1020.4 1020.3 0.0
 
Date/Time
EST
Temp
°C
App
Temp
°C
Dew
Point
°C
Rel
Hum
%
Delta-T
°C
Wind Press
QNH
hPa
Press
MSL
hPa
Rain since
9am
mm
Dir  Spd
km/h
Gust
km/h
Spd
kts
Gust
kts
22/11:30pm 12.7 10.6 11.1 90 0.8 SSW 13 15 7 8 1020.5 1020.4 0.0
22/11:00pm 12.3 10.8 10.5 89 0.9 SSW 9 11 5 6 1020.8 1020.7 0.0
22/10:30pm 12.8 11.5 11.2 90 0.8 SW 9 11 5 6 1020.9 1020.8 0.0
22/10:00pm 13.0 11.4 11.7 92 0.7 SSW 11 13 6 7 1021.0 1020.9 0.0
22/09:30pm 12.7 11.4 11.1 90 0.8 SSW 9 9 5 5 1021.0 1020.9 0.0
22/09:00pm 12.6 11.7 10.8 89 0.9 SW 6 7 3 4 1021.0 1020.9 0.0
22/08:30pm 13.5 12.7 11.7 89 1.0 SW 7 9 4 5 1020.8 1020.7 0.0
22/08:00pm 14.6 14.3 12.6 88 1.1 S 6 7 3 4 1020.5 1020.4 0.0
22/07:30pm 14.9 15.7 12.4 85 1.4 CALM 0 0 0 0 1020.3 1020.2 0.0
22/07:00pm 16.3 16.0 12.7 79 2.0 SE 6 6 3 3 1019.8 1019.7 0.0
22/06:30pm 17.0 16.2 12.9 77 2.3 SE 9 9 5 5 1019.4 1019.3 0.0
22/06:00pm 17.8 16.9 12.7 72 2.8 ESE 9 11 5 6 1019.0 1018.9 0.0
22/05:30pm 19.6 17.6 12.6 64 3.9 ESE 15 19 8 10 1018.7 1018.6 0.0
22/05:00pm 20.8 18.1 11.7 56 5.1 ESE 17 26 9 14 1018.3 1018.2 0.0
22/04:30pm 21.4 18.2 11.1 52 5.7 ESE 19 26 10 14 1018.2 1018.1 0.0
22/04:00pm 21.8 18.2 10.6 49 6.1 ESE 20 30 11 16 1018.2 1018.1 0.0
22/03:30pm 22.9 19.6 11.6 49 6.3 ESE 20 30 11 16 1018.1 1018.0 0.0
22/03:00pm 22.2 18.6 10.7 48 6.3 ESE 20 30 11 16 1018.1 1018.0 0.0
22/02:30pm 22.9 19.5 11.3 48 6.5 E 20 28 11 15 1018.4 1018.3 0.0
22/02:00pm 22.8 18.6 11.2 48 6.4 ESE 24 32 13 17 1018.8 1018.7 0.0
22/01:30pm 22.6 18.1 10.1 45 6.8 ESE 24 33 13 18 1019.2 1019.1 0.0
22/01:00pm 22.0 16.9 9.2 44 6.8 SE 26 33 14 18 1019.7 1019.6 0.0
22/12:30pm 22.0 17.2 8.9 43 7.0 ESE 24 35 13 19 1020.2 1020.1 0.0
22/12:00pm 22.4 17.6 8.9 42 7.2 ESE 24 37 13 20 1020.5 1020.4 0.0
22/11:30am 22.2 17.2 8.0 40 7.4 ESE 24 32 13 17 1020.8 1020.7 0.0
22/11:00am 23.0 18.6 9.0 41 7.5 SE 22 32 12 17 1021.2 1021.1 0.0
22/10:30am 22.0 17.5 8.5 42 7.1 ESE 22 32 12 17 1021.6 1021.5 0.0
22/10:00am 21.9 17.7 8.1 41 7.2 SE 20 32 11 17 1021.7 1021.6 0.0
22/09:30am 20.0 18.2 10.7 55 5.1 SSE 11 19 6 10 1022.0 1021.9 0.0
22/09:00am 16.9 16.0 10.7 67 3.3 SSE 6 9 3 5 1022.0 1021.9 0.0
22/08:30am 14.6 13.9 10.0 74 2.4 SSW 4 6 2 3 1022.0 1021.9 0.0
22/08:00am 12.2 10.7 9.2 82 1.5 SSW 7 9 4 5 1021.7 1021.6 0.0
22/07:30am 9.0 7.4 8.2 95 0.4 WSW 6 7 3 4 1021.4 1021.3 0.0
22/07:00am 6.9 4.7 5.5 91 0.6 SW 6 7 3 4 1021.2 1021.1 0.0
22/06:30am 7.7 5.7 7.0 95 0.3 SW 7 9 4 5 1020.8 1020.7 0.0
22/06:00am 8.0 5.3 7.2 95 0.4 SW 11 13 6 7 1020.4 1020.3 0.0
22/05:30am 7.8 5.5 7.4 97 0.2 SW 9 11 5 6 1019.8 1019.7 0.0
22/05:00am 6.9 6.0 6.0 94 0.4 CALM 0 0 0 0 1019.6 1019.5 0.0
22/04:30am 7.5 6.8 6.9 96 0.3 CALM 0 0 0 0 1019.5 1019.4 0.0
22/04:00am 7.5 6.8 6.9 96 0.3 CALM 0 0 0 0 1019.4 1019.3 0.0
22/03:30am 7.6 5.6 7.0 96 0.3 WNW 7 7 4 4 1019.4 1019.3 0.0
22/03:00am 8.1 7.4 7.0 93 0.5 CALM 0 0 0 0 1019.3 1019.2 0.0
22/02:30am 9.8 8.4 8.7 93 0.5 WSW 6 6 3 3 1019.4 1019.3 0.0
22/02:00am 10.5 9.0 9.3 92 0.6 SSW 7 9 4 5 1019.6 1019.5 0.0
22/01:30am 10.3 8.0 9.1 92 0.6 SW 11 13 6 7 1019.7 1019.6 0.0
22/01:00am 10.7 8.1 9.5 92 0.6 SW 13 17 7 9 1019.6 1019.5 0.0
22/12:30am 11.1 8.2 9.7 91 0.7 SW 15 17 8 9 1019.9 1019.8 0.0
22/12:00am 11.2 8.7 9.8 91 0.7 SW 13 15 7 8 1020.0 1019.9 0.0
 
Date/Time
EST
Temp
°C
App
Temp
°C
Dew
Point
°C
Rel
Hum
%
Delta-T
°C
Wind Press
QNH
hPa
Press
MSL
hPa
Rain since
9am
mm
Dir  Spd
km/h
Gust
km/h
Spd
kts
Gust
kts
21/11:30pm 11.7 9.3 10.1 90 0.8 SSW 13 15 7 8 1020.3 1020.2 0.0
21/11:00pm 12.2 9.9 10.4 89 0.9 SSW 13 15 7 8 1020.4 1020.3 0.0
21/10:30pm 11.9 9.9 10.1 89 0.9 SSW 11 13 6 7 1020.5 1020.4 0.0
21/10:00pm 12.3 10.5 10.7 90 0.8 SSW 11 13 6 7 1020.6 1020.5 0.0
21/09:30pm 12.7 10.9 10.8 88 1.0 SSW 11 13 6 7 1020.3 1020.2 0.0
21/09:00pm 13.0 11.3 11.1 88 1.0 SSW 11 13 6 7 1020.1 1020.0 0.0
21/08:30pm 13.3 11.9 10.8 85 1.3 SSW 9 9 5 5 1019.9 1019.8 0.0
21/08:00pm 14.0 13.1 11.5 85 1.3 SSW 7 9 4 5 1019.6 1019.5 0.0
21/07:30pm 14.6 13.2 11.0 79 1.9 S 9 11 5 6 1019.2 1019.1 0.0
21/07:00pm 16.0 15.0 12.2 78 2.1 SSE 9 9 5 5 1018.8 1018.7 0.0
21/06:30pm 16.4 15.8 12.4 77 2.2 SE 7 11 4 6 1018.3 1018.2 0.0
21/06:00pm 16.7 14.8 11.8 73 2.7 SE 13 15 7 8 1017.9 1017.8 0.0
21/05:30pm 18.8 16.6 12.1 65 3.7 ESE 15 22 8 12 1017.4 1017.4 0.0
21/05:00pm 20.1 17.5 12.1 60 4.5 ESE 17 20 9 11 1017.2 1017.2 0.0
21/04:30pm 21.2 18.5 11.8 55 5.2 ESE 17 22 9 12 1016.9 1016.9 0.0
21/04:00pm 21.5 18.7 11.2 52 5.7 ESE 17 22 9 12 1016.6 1016.6 0.0
21/03:30pm 22.4 19.9 11.2 49 6.2 E 15 20 8 11 1016.5 1016.5 0.0
21/03:00pm 22.4 19.6 11.2 49 6.2 ESE 17 26 9 14 1016.5 1016.5 0.0
21/02:30pm 22.6 19.4 11.4 49 6.3 ESE 19 26 10 14 1016.9 1016.9 0.0
21/02:00pm 22.7 19.7 10.8 47 6.6 ESE 17 26 9 14 1017.2 1017.2 0.0
21/01:30pm 23.2 19.3 8.5 39 7.8 SE 19 26 10 14 1017.6 1017.6 0.0
21/01:00pm 22.6 18.8 7.6 38 7.8 ESE 17 24 9 13 1017.8 1017.7 0.0
21/12:30pm 23.5 19.9 8.4 38 8.0 ESE 17 24 9 13 1018.4 1018.3 0.0
21/12:00pm 22.7 17.8 5.2 32 8.7 SE 20 30 11 16 1018.6 1018.5 0.0
21/11:30am 22.7 17.9 4.7 31 8.9 ESE 19 26 10 14 1018.9 1018.8 0.0
21/11:00am 22.3 17.5 4.8 32 8.6 ESE 19 26 10 14 1019.4 1019.3 0.0

Other Formats:

Comma delimited format used in spreadsheet applications
http://www.bom.gov.au/fwo/IDQ60801/IDQ60801.94365.axf

JavaScript Object Notation format (JSON) in row-major order
http://www.bom.gov.au/fwo/IDQ60801/IDQ60801.94365.json